Yeowardville, Illinois
Current Conditions -  °F | °C
As of 12:35 PM on Thursday 27 Nov 2014 (Local Time) from KSQI Reporting Station
Overcast Overcast  
Wind Chill: 13°   Ceiling: 1900
Heat Index: 25°   Visibility: 10mi
Dew Point: 16°   Wind: 14mph
Humidity: 69%   Direction: 310°NW
Pressure: 30.39"   Gusts: NA
Location:  41.7267°N, 89.7066°W
Report Text: KSQI 271835Z 31012KT 10SM BKN019 OVC026 M04/M09 A3039 RMK AO1
Loading
Personal Weather Stations






























Interactive Weather Map New forecast layout! Learn more

10-Day Weather Forecast

Advertisements
Track Severe Weather on mobile